Startpagina
METAR-TAF:

METAR-TAF

Vliegvelden :

Selebi-Phikwe, Botswana

breedte: 22-03-19S, lengte: 027-49-13E, hoogte: 892 m

Actueel weer

Dit bericht is 1 uur en het 7 minuten geleden gemaakt, om 18:00 UTC
Wind 9 kt uit het oosten
Temperatuur 28°C
Vochtigheid 58%
Druk 1017 hPa
Zicht 10 km of meer
geen wolken onder 1500 m en geen cumulonimbus

METAR: FBSP 181800Z 09009KT CAVOK 28/19 Q1017

Tijdstip: 21:07 (19:07 UTC)

Verwachting

Dit bericht is 7 uur en het 7 minuten geleden gemaakt, om 12:00 UTC
Verwachting geldig van 18 om 15 UTC tot 18 om 24 UTC
Wind 13 kt uit het oosten
Zicht 10 km of meer
Verspreide wolken op 3000 ft
Weinig wolken op 3500 ft, Cumulonimbus.
Wijzigt naar
van 18 om 18 UTC tot 18 om 24 UTC
Zicht 10 km of meer
geen wolken onder 1500 m en geen cumulonimbus

TAF: FBSP 181200Z 1815/1824 08013KT 9999 SCT030 FEW035CB BECMG 1818/1824 CAVOK

Waarnemingen en weersverwachtingen van meer dan 4000 vliegvelden (METAR en TAF).

De beschikbare stations zijn de gele en rode punten op de kaart.

Ga met uw muis naar het station om de naam te zien.

Klik dan om waarnemingen en weersverwachtingen te zien.

kaart wijzigen: klik op de groene knoppen met een zwart kruis om in te zoomen, op de groene knop met een streepje om uit te zoomen of op de groene pijlen voor aangrenzende kaarten.


METAR-TAF: